createdAt,value
2022-09-21T00:00:42.000Z,96.80
2022-09-21T00:01:42.000Z,96.80
2022-09-21T00:02:42.000Z,96.69
2022-09-21T00:03:42.000Z,96.59
2022-09-21T00:04:42.000Z,96.64
2022-09-21T00:05:42.000Z,96.64
2022-09-21T00:06:42.000Z,96.64
2022-09-21T00:07:42.000Z,96.64
2022-09-21T00:08:42.000Z,96.53
2022-09-21T00:09:42.000Z,96.64
2022-09-21T00:10:42.000Z,96.73
2022-09-21T00:11:42.000Z,96.64
2022-09-21T00:12:42.000Z,96.64
2022-09-21T00:13:42.000Z,96.64
2022-09-21T00:14:42.000Z,96.64
2022-09-21T00:15:42.000Z,96.64
2022-09-21T00:16:42.000Z,96.64
2022-09-21T00:17:42.000Z,96.53
2022-09-21T00:18:42.000Z,96.58
2022-09-21T00:19:42.000Z,96.58
2022-09-21T00:20:42.000Z,96.68
2022-09-21T00:21:42.000Z,96.58
2022-09-21T00:22:42.000Z,96.58
2022-09-21T00:23:42.000Z,96.37
2022-09-21T00:24:42.000Z,96.47
2022-09-21T00:25:42.000Z,96.47
2022-09-21T00:26:42.000Z,96.58
2022-09-21T00:27:42.000Z,96.47
2022-09-21T00:28:42.000Z,96.42
2022-09-21T00:29:42.000Z,96.52
2022-09-21T00:30:42.000Z,96.52
2022-09-21T00:31:42.000Z,96.72
2022-09-21T00:32:42.000Z,96.62
2022-09-21T00:33:42.000Z,96.72
2022-09-21T00:34:42.000Z,96.93
2022-09-21T00:35:42.000Z,96.83
2022-09-21T00:36:42.000Z,96.83
2022-09-21T00:37:42.000Z,96.93
2022-09-21T00:38:42.000Z,96.83
2022-09-21T00:39:42.000Z,96.77
2022-09-21T00:40:42.000Z,96.97
2022-09-21T00:41:42.000Z,97.08
2022-09-21T00:42:42.000Z,97.08
2022-09-21T00:43:42.000Z,97.18
2022-09-21T00:44:42.000Z,97.18
2022-09-21T00:45:42.000Z,96.97
2022-09-21T00:46:42.000Z,97.18
2022-09-21T00:47:42.000Z,97.23
2022-09-21T00:48:42.000Z,97.18
2022-09-21T00:49:42.000Z,97.23
2022-09-21T00:50:42.000Z,97.23
2022-09-21T00:51:42.000Z,97.43
2022-09-21T00:52:42.000Z,97.43
2022-09-21T00:53:41.000Z,97.33
2022-09-21T00:54:41.000Z,97.33
2022-09-21T00:55:41.000Z,97.33
2022-09-21T00:56:41.000Z,97.33
2022-09-21T00:57:41.000Z,97.38
2022-09-21T00:58:41.000Z,97.33
2022-09-21T00:59:41.000Z,97.38
2022-09-21T01:00:41.000Z,97.33
2022-09-21T01:01:49.000Z,97.38
2022-09-21T01:02:41.000Z,97.38
2022-09-21T01:03:41.000Z,97.48
2022-09-21T01:04:41.000Z,97.48
2022-09-21T01:05:41.000Z,97.58
2022-09-21T01:06:41.000Z,97.89
2022-09-21T01:07:41.000Z,97.99
2022-09-21T01:08:41.000Z,97.99
2022-09-21T01:09:41.000Z,97.99
2022-09-21T01:10:41.000Z,97.89
2022-09-21T01:11:41.000Z,97.78
2022-09-21T01:12:41.000Z,97.78
2022-09-21T01:13:41.000Z,97.78
2022-09-21T01:14:41.000Z,97.89
2022-09-21T01:15:41.000Z,97.99
2022-09-21T01:16:41.000Z,98.10
2022-09-21T01:17:41.000Z,98.10
2022-09-21T01:18:41.000Z,98.10
2022-09-21T01:19:41.000Z,98.41
2022-09-21T01:20:41.000Z,98.41
2022-09-21T01:21:41.000Z,98.41
2022-09-21T01:22:41.000Z,98.41
2022-09-21T01:23:41.000Z,98.45
2022-09-21T01:24:41.000Z,98.41
2022-09-21T01:25:41.000Z,98.61
2022-09-21T01:26:41.000Z,99.02
2022-09-21T01:27:41.000Z,99.13
2022-09-21T01:28:41.000Z,99.17
2022-09-21T01:29:41.000Z,99.38
2022-09-21T01:30:41.000Z,99.27
2022-09-21T01:31:41.000Z,99.27
2022-09-21T01:32:41.000Z,99.27
2022-09-21T01:33:41.000Z,99.27
2022-09-21T01:34:41.000Z,99.27
2022-09-21T01:35:41.000Z,99.17
2022-09-21T01:36:41.000Z,99.07
2022-09-21T01:37:41.000Z,98.97
2022-09-21T01:38:41.000Z,98.97
2022-09-21T01:39:41.000Z,98.97
2022-09-21T01:40:41.000Z,98.86
2022-09-21T01:41:41.000Z,98.86
2022-09-21T01:42:41.000Z,98.86
2022-09-21T01:43:41.000Z,98.97
2022-09-21T01:44:41.000Z,99.07
2022-09-21T01:45:41.000Z,99.27
2022-09-21T01:46:41.000Z,99.38
2022-09-21T01:47:41.000Z,99.38
2022-09-21T01:48:41.000Z,99.38
2022-09-21T01:49:41.000Z,99.38
2022-09-21T01:50:41.000Z,99.52
2022-09-21T01:51:41.000Z,99.52
2022-09-21T01:52:41.000Z,99.38
2022-09-21T01:53:41.000Z,99.43
2022-09-21T01:54:41.000Z,99.32
2022-09-21T01:55:41.000Z,99.43
2022-09-21T01:56:41.000Z,99.32
2022-09-21T01:57:41.000Z,99.32
2022-09-21T01:58:41.000Z,99.32
2022-09-21T01:59:41.000Z,99.43
2022-09-21T02:00:41.000Z,99.43
2022-09-21T02:01:41.000Z,99.43
2022-09-21T02:02:41.000Z,99.52
2022-09-21T02:03:41.000Z,99.63
2022-09-21T02:04:41.000Z,99.63
2022-09-21T02:05:41.000Z,99.63
2022-09-21T02:06:41.000Z,99.63
2022-09-21T02:07:41.000Z,99.63
2022-09-21T02:08:41.000Z,99.84
2022-09-21T02:09:41.000Z,99.84
2022-09-21T02:10:41.000Z,99.94
2022-09-21T02:11:41.000Z,99.99
2022-09-21T02:12:41.000Z,99.99
2022-09-21T02:13:41.000Z,99.99
2022-09-21T02:14:41.000Z,99.94
2022-09-21T02:15:41.000Z,99.94
2022-09-21T02:16:41.000Z,99.94
2022-09-21T02:17:41.000Z,99.94
2022-09-21T02:18:41.000Z,99.94
2022-09-21T02:19:41.000Z,99.94
2022-09-21T02:20:41.000Z,99.84
2022-09-21T02:21:41.000Z,99.84
2022-09-21T02:22:41.000Z,99.84
2022-09-21T02:23:41.000Z,99.73
2022-09-21T02:24:41.000Z,99.73
2022-09-21T02:25:41.000Z,99.73
2022-09-21T02:26:41.000Z,99.73
2022-09-21T02:27:40.000Z,99.73
2022-09-21T02:28:40.000Z,99.73
2022-09-21T02:29:40.000Z,99.84
2022-09-21T02:30:40.000Z,99.84
2022-09-21T02:31:40.000Z,99.94
2022-09-21T02:32:40.000Z,99.94
2022-09-21T02:33:40.000Z,99.94
2022-09-21T02:34:40.000Z,99.99
2022-09-21T02:35:40.000Z,99.88
2022-09-21T02:36:40.000Z,99.78
2022-09-21T02:37:40.000Z,99.78
2022-09-21T02:38:40.000Z,99.78
2022-09-21T02:39:40.000Z,99.88
2022-09-21T02:40:40.000Z,99.78
2022-09-21T02:41:40.000Z,99.99
2022-09-21T02:42:40.000Z,99.99
2022-09-21T02:43:40.000Z,99.99
2022-09-21T02:44:40.000Z,99.99
2022-09-21T02:45:40.000Z,99.99
2022-09-21T02:46:40.000Z,99.99
2022-09-21T02:47:40.000Z,99.99
2022-09-21T02:48:40.000Z,99.99
2022-09-21T02:49:40.000Z,99.99
2022-09-21T02:50:40.000Z,99.99
2022-09-21T02:51:40.000Z,99.99
2022-09-21T02:52:40.000Z,99.99
2022-09-21T02:53:40.000Z,99.99
2022-09-21T02:54:40.000Z,99.99
2022-09-21T02:55:40.000Z,99.99
2022-09-21T03:01:28.000Z,99.99
2022-09-21T03:01:28.000Z,99.99
2022-09-21T03:02:28.000Z,99.99
2022-09-21T03:03:28.000Z,99.99
2022-09-21T03:04:28.000Z,99.99
2022-09-21T03:05:28.000Z,99.99
2022-09-21T03:06:28.000Z,99.99
2022-09-21T03:07:28.000Z,99.99
2022-09-21T03:08:28.000Z,99.99
2022-09-21T03:09:28.000Z,99.99
2022-09-21T03:10:28.000Z,99.99
2022-09-21T03:11:28.000Z,99.99
2022-09-21T03:12:28.000Z,99.99
2022-09-21T03:13:28.000Z,99.99
2022-09-21T03:14:28.000Z,99.99
2022-09-21T03:15:28.000Z,99.99
2022-09-21T03:16:28.000Z,99.99
2022-09-21T03:17:28.000Z,99.99
2022-09-21T03:18:28.000Z,99.99
2022-09-21T03:19:28.000Z,99.99
2022-09-21T03:20:28.000Z,99.99
2022-09-21T03:21:28.000Z,99.99
2022-09-21T03:22:28.000Z,99.99
2022-09-21T03:23:28.000Z,99.99
2022-09-21T03:24:28.000Z,99.99
2022-09-21T03:25:28.000Z,99.99
2022-09-21T03:26:28.000Z,99.99
2022-09-21T03:27:28.000Z,99.99
2022-09-21T03:28:28.000Z,99.99
2022-09-21T03:29:28.000Z,99.99
2022-09-21T03:30:28.000Z,99.99
2022-09-21T03:31:28.000Z,99.99
2022-09-21T03:32:28.000Z,99.99
2022-09-21T03:33:28.000Z,99.99
2022-09-21T03:34:28.000Z,99.99
2022-09-21T03:35:28.000Z,99.99
2022-09-21T03:36:28.000Z,99.99
2022-09-21T03:37:28.000Z,99.99
2022-09-21T03:38:28.000Z,99.99
2022-09-21T03:39:28.000Z,99.99
2022-09-21T03:40:28.000Z,99.99
2022-09-21T03:41:28.000Z,99.93
2022-09-21T03:42:28.000Z,99.93
2022-09-21T03:43:28.000Z,99.82
2022-09-21T03:44:28.000Z,99.72
2022-09-21T03:45:28.000Z,99.72
2022-09-21T03:46:28.000Z,99.72
2022-09-21T03:47:28.000Z,99.72
2022-09-21T03:48:28.000Z,99.82
2022-09-21T03:49:28.000Z,99.82
2022-09-21T03:50:28.000Z,99.72
2022-09-21T03:51:28.000Z,99.72
2022-09-21T03:52:28.000Z,99.62
2022-09-21T03:53:28.000Z,99.72
2022-09-21T03:54:28.000Z,99.62
2022-09-21T03:55:28.000Z,99.62
2022-09-21T03:56:28.000Z,99.62
2022-09-21T03:57:27.000Z,99.62
2022-09-21T03:58:27.000Z,99.62
2022-09-21T03:59:27.000Z,99.52
2022-09-21T04:00:27.000Z,99.52
2022-09-21T04:01:27.000Z,99.66
2022-09-21T04:02:27.000Z,99.56
2022-09-21T04:03:27.000Z,99.41
2022-09-21T04:04:27.000Z,99.46
2022-09-21T04:05:27.000Z,99.46
2022-09-21T04:06:27.000Z,99.41
2022-09-21T04:07:27.000Z,99.52
2022-09-21T04:08:27.000Z,99.52
2022-09-21T04:09:27.000Z,99.62
2022-09-21T04:10:27.000Z,99.72
2022-09-21T04:11:27.000Z,99.82
2022-09-21T04:12:27.000Z,99.82
2022-09-21T04:13:27.000Z,99.93
2022-09-21T04:14:27.000Z,99.93
2022-09-21T04:15:27.000Z,99.99
2022-09-21T04:16:27.000Z,99.99
2022-09-21T04:17:27.000Z,99.99
2022-09-21T04:18:27.000Z,99.99
2022-09-21T04:19:27.000Z,99.99
2022-09-21T04:20:27.000Z,99.99
2022-09-21T04:21:27.000Z,99.99
2022-09-21T04:22:27.000Z,99.99
2022-09-21T04:23:27.000Z,99.99
2022-09-21T04:24:27.000Z,99.93
2022-09-21T04:25:27.000Z,99.82
2022-09-21T04:26:27.000Z,99.77
2022-09-21T04:27:27.000Z,99.77
2022-09-21T04:28:27.000Z,99.56
2022-09-21T04:29:27.000Z,99.56
2022-09-21T04:30:27.000Z,99.46
2022-09-21T04:31:27.000Z,99.35
2022-09-21T04:32:27.000Z,99.25
2022-09-21T04:33:27.000Z,99.25
2022-09-21T04:34:27.000Z,99.25
2022-09-21T04:35:27.000Z,99.25
2022-09-21T04:36:27.000Z,99.25
2022-09-21T04:37:27.000Z,99.25
2022-09-21T04:38:27.000Z,99.35
2022-09-21T04:39:27.000Z,99.46
2022-09-21T04:40:27.000Z,99.46
2022-09-21T04:41:27.000Z,99.35
2022-09-21T04:42:27.000Z,99.35
2022-09-21T04:43:27.000Z,99.35
2022-09-21T04:44:27.000Z,99.25
2022-09-21T04:45:27.000Z,99.35
2022-09-21T04:46:27.000Z,99.46
2022-09-21T04:47:27.000Z,99.46
2022-09-21T04:48:27.000Z,99.61
2022-09-21T04:49:27.000Z,99.56
2022-09-21T04:50:27.000Z,99.66
2022-09-21T04:51:27.000Z,99.71
2022-09-21T04:52:27.000Z,99.61
2022-09-21T04:53:27.000Z,99.51
2022-09-21T04:54:27.000Z,99.51
2022-09-21T04:55:27.000Z,99.51
2022-09-21T04:56:27.000Z,99.51
2022-09-21T04:57:27.000Z,99.61
2022-09-21T04:58:27.000Z,99.51
2022-09-21T04:59:27.000Z,99.61
2022-09-21T05:00:27.000Z,99.51
2022-09-21T05:01:27.000Z,99.51
2022-09-21T05:02:27.000Z,99.61
2022-09-21T05:03:27.000Z,99.61
2022-09-21T05:04:27.000Z,99.51
2022-09-21T05:05:27.000Z,99.51
2022-09-21T05:06:27.000Z,99.51
2022-09-21T05:07:27.000Z,99.51
2022-09-21T05:08:27.000Z,99.61
2022-09-21T05:09:27.000Z,99.71
2022-09-21T05:10:27.000Z,99.82
2022-09-21T05:11:27.000Z,99.82
2022-09-21T05:12:27.000Z,99.87
2022-09-21T05:13:27.000Z,99.92
2022-09-21T05:14:27.000Z,99.98
2022-09-21T05:15:27.000Z,99.99
2022-09-21T05:16:27.000Z,99.99
2022-09-21T05:17:27.000Z,99.99
2022-09-21T05:18:27.000Z,99.99
2022-09-21T05:19:27.000Z,99.99
2022-09-21T05:20:27.000Z,99.99
2022-09-21T05:21:27.000Z,99.99
2022-09-21T05:22:27.000Z,99.99
2022-09-21T05:23:27.000Z,99.99
2022-09-21T05:24:27.000Z,99.99
2022-09-21T05:25:27.000Z,99.99
2022-09-21T05:26:27.000Z,99.99
2022-09-21T05:27:27.000Z,99.99
2022-09-21T05:28:27.000Z,99.99
2022-09-21T05:29:27.000Z,99.99
2022-09-21T05:30:27.000Z,99.99
2022-09-21T05:31:26.000Z,99.99
2022-09-21T05:32:26.000Z,99.99
2022-09-21T05:33:26.000Z,99.99
2022-09-21T05:53:44.000Z,99.99
2022-09-21T05:53:44.000Z,99.99
2022-09-21T05:54:44.000Z,99.99
2022-09-21T05:55:44.000Z,99.99
2022-09-21T05:56:44.000Z,99.99
2022-09-21T05:57:44.000Z,99.99
2022-09-21T05:58:44.000Z,99.99
2022-09-21T05:59:44.000Z,99.99
2022-09-21T06:00:44.000Z,99.99
2022-09-21T06:01:44.000Z,99.99
2022-09-21T06:02:44.000Z,98.92
2022-09-21T06:03:44.000Z,98.46
2022-09-21T06:04:44.000Z,98.36
2022-09-21T06:05:44.000Z,98.36
2022-09-21T06:06:44.000Z,98.21
2022-09-21T06:07:44.000Z,98.11
2022-09-21T06:08:44.000Z,97.91
2022-09-21T06:09:44.000Z,97.39
2022-09-21T06:10:44.000Z,96.94
2022-09-21T06:11:44.000Z,96.94
2022-09-21T06:12:44.000Z,96.58
2022-09-21T06:13:44.000Z,96.89
2022-09-21T06:14:44.000Z,96.58
2022-09-21T06:15:44.000Z,96.03
2022-09-21T06:16:44.000Z,94.59
2022-09-21T06:17:44.000Z,94.24
2022-09-21T06:18:44.000Z,93.01
2022-09-21T06:19:44.000Z,93.59
2022-09-21T06:20:44.000Z,93.89
2022-09-21T06:29:02.000Z,88.31
2022-09-21T06:29:02.000Z,87.08
2022-09-21T06:30:02.000Z,86.43
2022-09-21T06:31:02.000Z,87.10
2022-09-21T06:32:02.000Z,87.10
2022-09-21T06:33:02.000Z,85.94
2022-09-21T06:34:02.000Z,85.33
2022-09-21T06:35:02.000Z,84.67
2022-09-21T06:36:02.000Z,85.28
2022-09-21T06:37:02.000Z,84.03
2022-09-21T06:38:01.000Z,82.19
2022-09-21T06:39:01.000Z,81.65
2022-09-21T06:40:01.000Z,82.05
2022-09-21T06:41:01.000Z,80.42
2022-09-21T06:42:01.000Z,80.63
2022-09-21T06:43:01.000Z,80.59
2022-09-21T06:44:01.000Z,78.96
2022-09-21T06:45:01.000Z,78.45
2022-09-21T06:46:01.000Z,78.96
2022-09-21T06:47:01.000Z,78.55
2022-09-21T06:48:01.000Z,78.35
2022-09-21T06:49:01.000Z,78.76
2022-09-21T06:50:01.000Z,78.25
2022-09-21T06:51:01.000Z,79.68
2022-09-21T06:52:01.000Z,79.27
2022-09-21T06:53:01.000Z,79.27
2022-09-21T06:54:01.000Z,79.68
2022-09-21T06:55:01.000Z,80.55
2022-09-21T06:56:01.000Z,80.24
2022-09-21T06:57:01.000Z,81.06
2022-09-21T06:58:01.000Z,81.26
2022-09-21T06:59:01.000Z,78.52
2022-09-21T07:00:01.000Z,78.68
2022-09-21T07:01:01.000Z,77.87
2022-09-21T07:02:01.000Z,77.87
2022-09-21T07:03:01.000Z,77.56
2022-09-21T07:04:01.000Z,77.67
2022-09-21T07:05:01.000Z,77.26
2022-09-21T07:06:01.000Z,76.95
2022-09-21T07:07:01.000Z,76.65
2022-09-21T07:08:01.000Z,76.34
2022-09-21T07:09:01.000Z,75.73
2022-09-21T07:10:01.000Z,76.04
2022-09-21T07:11:01.000Z,75.63
2022-09-21T07:12:01.000Z,76.14
2022-09-21T07:13:01.000Z,76.55
2022-09-21T07:14:01.000Z,77.47
2022-09-21T07:15:01.000Z,78.28
2022-09-21T07:16:01.000Z,79.56
2022-09-21T07:17:01.000Z,78.85
2022-09-21T07:18:01.000Z,75.46
2022-09-21T07:19:01.000Z,75.67
2022-09-21T07:20:01.000Z,75.32
2022-09-21T07:21:01.000Z,75.49
2022-09-21T07:22:01.000Z,75.70
2022-09-21T07:23:01.000Z,73.73
2022-09-21T07:24:01.000Z,72.48
2022-09-21T07:25:01.000Z,71.16
2022-09-21T07:26:01.000Z,70.83
2022-09-21T07:27:01.000Z,70.72
2022-09-21T07:28:01.000Z,71.40
2022-09-21T07:29:01.000Z,69.27
2022-09-21T07:30:01.000Z,71.30
2022-09-21T07:31:01.000Z,70.25
2022-09-21T07:32:01.000Z,68.84
2022-09-21T07:33:01.000Z,70.42
2022-09-21T07:34:01.000Z,68.90
2022-09-21T07:35:01.000Z,68.97
2022-09-21T07:36:01.000Z,67.46
2022-09-21T07:37:01.000Z,68.94
2022-09-21T07:38:01.000Z,69.34
2022-09-21T07:39:01.000Z,68.71
2022-09-21T07:40:01.000Z,68.00
2022-09-21T07:41:01.000Z,67.19
2022-09-21T07:42:01.000Z,66.55
2022-09-21T07:43:01.000Z,64.94
2022-09-21T07:44:01.000Z,65.95
2022-09-21T07:45:01.000Z,64.30
2022-09-21T07:46:01.000Z,65.11
2022-09-21T07:47:01.000Z,65.18
2022-09-21T07:48:01.000Z,64.78
2022-09-21T07:49:01.000Z,65.99
2022-09-21T07:50:01.000Z,62.35
2022-09-21T07:51:01.000Z,63.06
2022-09-21T07:52:01.000Z,65.68
2022-09-21T07:53:01.000Z,64.95
2022-09-21T07:54:01.000Z,62.02
2022-09-21T07:55:01.000Z,64.54
2022-09-21T07:56:01.000Z,63.43
2022-09-21T07:57:01.000Z,64.54
2022-09-21T07:58:01.000Z,63.93
2022-09-21T07:59:01.000Z,63.73
2022-09-21T08:00:01.000Z,61.95
2022-09-21T08:01:01.000Z,63.67
2022-09-21T08:02:01.000Z,66.39
2022-09-21T08:03:01.000Z,65.99
2022-09-21T08:04:01.000Z,65.35
2022-09-21T08:05:01.000Z,64.84
2022-09-21T08:06:01.000Z,65.42
2022-09-21T08:07:01.000Z,64.28
2022-09-21T08:08:01.000Z,64.89
2022-09-21T08:09:01.000Z,63.67
2022-09-21T08:10:00.000Z,64.07
2022-09-21T08:11:00.000Z,64.35
2022-09-21T08:12:00.000Z,61.13
2022-09-21T08:13:00.000Z,63.01
2022-09-21T08:14:00.000Z,60.16
2022-09-21T08:15:00.000Z,62.48
2022-09-21T08:16:00.000Z,58.45
2022-09-21T08:17:00.000Z,58.75
2022-09-21T08:18:00.000Z,60.36
2022-09-21T08:19:00.000Z,60.33
2022-09-21T08:20:00.000Z,59.94
2022-09-21T08:21:00.000Z,59.13
2022-09-21T08:22:00.000Z,60.24
2022-09-21T08:23:00.000Z,60.81
2022-09-21T08:24:00.000Z,60.21
2022-09-21T08:25:00.000Z,59.60
2022-09-21T08:26:00.000Z,60.58
2022-09-21T08:27:00.000Z,60.48
2022-09-21T08:28:00.000Z,59.05
2022-09-21T08:29:00.000Z,58.54
2022-09-21T08:30:00.000Z,57.11
2022-09-21T08:31:00.000Z,57.89
2022-09-21T08:32:00.000Z,57.21
2022-09-21T08:33:00.000Z,57.79
2022-09-21T08:34:00.000Z,57.39
2022-09-21T08:35:00.000Z,56.28
2022-09-21T08:36:00.000Z,56.51
2022-09-21T08:37:00.000Z,57.81
2022-09-21T08:38:00.000Z,59.09
2022-09-21T08:39:00.000Z,56.98
2022-09-21T08:40:00.000Z,57.08
2022-09-21T08:41:00.000Z,56.05
2022-09-21T08:42:00.000Z,58.46
2022-09-21T08:43:00.000Z,56.85
2022-09-21T08:44:00.000Z,57.46
2022-09-21T08:45:00.000Z,57.43
2022-09-21T08:46:00.000Z,54.43
2022-09-21T08:47:00.000Z,54.43
2022-09-21T08:48:00.000Z,54.90
2022-09-21T08:49:00.000Z,54.20
2022-09-21T08:50:00.000Z,54.70
2022-09-21T08:51:00.000Z,53.82
2022-09-21T08:52:00.000Z,56.02
2022-09-21T08:53:00.000Z,56.23
2022-09-21T08:54:00.000Z,55.93
2022-09-21T08:55:00.000Z,55.73
2022-09-21T08:56:00.000Z,54.00
2022-09-21T08:57:00.000Z,56.43
2022-09-21T08:58:00.000Z,53.19
2022-09-21T08:59:00.000Z,53.89
2022-09-21T09:00:00.000Z,54.70
2022-09-21T09:01:00.000Z,55.60
2022-09-21T09:02:00.000Z,53.97
2022-09-21T09:03:00.000Z,55.07
2022-09-21T09:04:00.000Z,56.48
2022-09-21T09:05:00.000Z,54.77
2022-09-21T09:06:00.000Z,55.55
2022-09-21T09:07:00.000Z,54.74
2022-09-21T09:08:00.000Z,55.94
2022-09-21T09:09:00.000Z,55.94
2022-09-21T09:10:00.000Z,55.85
2022-09-21T09:11:00.000Z,55.92
2022-09-21T09:12:00.000Z,53.42
2022-09-21T09:13:00.000Z,55.22
2022-09-21T09:14:00.000Z,54.35
2022-09-21T09:15:00.000Z,54.42
2022-09-21T09:16:00.000Z,53.12
2022-09-21T09:17:00.000Z,55.02
2022-09-21T09:18:00.000Z,52.69
2022-09-21T09:19:00.000Z,51.59
2022-09-21T09:20:00.000Z,54.69
2022-09-21T09:21:00.000Z,52.00
2022-09-21T09:22:00.000Z,54.39
2022-09-21T09:23:00.000Z,53.49
2022-09-21T09:24:00.000Z,53.67
2022-09-21T09:25:00.000Z,52.99
2022-09-21T09:26:00.000Z,52.89
2022-09-21T09:27:00.000Z,53.59
2022-09-21T09:28:00.000Z,55.40
2022-09-21T09:29:00.000Z,52.00
2022-09-21T09:30:00.000Z,53.59
2022-09-21T09:31:00.000Z,51.77
2022-09-21T09:32:00.000Z,50.35
2022-09-21T09:33:00.000Z,52.44
2022-09-21T09:34:00.000Z,53.07
2022-09-21T09:35:00.000Z,51.89
2022-09-21T09:36:00.000Z,50.89
2022-09-21T09:37:00.000Z,49.99
2022-09-21T09:38:00.000Z,53.47
2022-09-21T09:39:00.000Z,50.24
2022-09-21T09:40:00.000Z,50.04
2022-09-21T09:41:00.000Z,49.32
2022-09-21T09:42:00.000Z,49.40
2022-09-21T09:43:00.000Z,49.60
2022-09-21T09:43:59.000Z,49.00
2022-09-21T09:44:59.000Z,50.02
2022-09-21T09:45:59.000Z,50.65
2022-09-21T09:46:59.000Z,52.34
2022-09-21T09:47:59.000Z,50.45
2022-09-21T09:48:59.000Z,51.15
2022-09-21T09:49:59.000Z,50.54
2022-09-21T09:50:59.000Z,51.04
2022-09-21T09:51:59.000Z,51.42
2022-09-21T09:52:59.000Z,52.72
2022-09-21T09:53:59.000Z,51.29
2022-09-21T09:54:59.000Z,49.87
2022-09-21T09:55:59.000Z,50.35
2022-09-21T09:56:59.000Z,48.58
2022-09-21T09:57:59.000Z,51.17
2022-09-21T09:58:59.000Z,50.47
2022-09-21T09:59:59.000Z,49.98
2022-09-21T10:00:59.000Z,49.25
2022-09-21T10:01:59.000Z,49.33
2022-09-21T10:02:59.000Z,48.85
2022-09-21T10:03:59.000Z,47.58
2022-09-21T10:04:59.000Z,48.48
2022-09-21T10:05:59.000Z,49.18
2022-09-21T10:06:59.000Z,50.05
2022-09-21T10:07:59.000Z,48.78
2022-09-21T10:08:59.000Z,50.97
2022-09-21T10:09:59.000Z,50.70
2022-09-21T10:10:59.000Z,47.85
2022-09-21T10:11:59.000Z,51.50
2022-09-21T10:12:59.000Z,52.12
2022-09-21T10:13:59.000Z,53.55
2022-09-21T10:14:59.000Z,54.72
2022-09-21T10:15:59.000Z,55.85
2022-09-21T10:16:59.000Z,52.47
2022-09-21T10:17:59.000Z,54.58
2022-09-21T10:18:59.000Z,52.94
2022-09-21T10:19:59.000Z,53.95
2022-09-21T10:20:59.000Z,56.93
2022-09-21T10:21:59.000Z,52.52
2022-09-21T10:22:59.000Z,53.22
2022-09-21T10:23:59.000Z,54.02
2022-09-21T10:24:59.000Z,53.69
2022-09-21T10:25:59.000Z,53.27
2022-09-21T10:26:59.000Z,52.39
2022-09-21T10:26:59.000Z,52.39
2022-09-21T10:27:59.000Z,51.29
2022-09-21T10:27:59.000Z,51.29
2022-09-21T10:28:59.000Z,53.19
2022-09-21T10:28:59.000Z,53.19
2022-09-21T10:29:59.000Z,52.89
2022-09-21T10:29:59.000Z,52.89
2022-09-21T10:30:59.000Z,54.20
2022-09-21T10:30:59.000Z,54.20
2022-09-21T10:31:59.000Z,53.80
2022-09-21T10:32:59.000Z,52.92
2022-09-21T10:33:59.000Z,52.12
2022-09-21T10:34:59.000Z,55.05
2022-09-21T10:35:59.000Z,54.17
2022-09-21T10:36:59.000Z,54.07
2022-09-21T10:37:59.000Z,55.38
2022-09-21T10:38:59.000Z,56.08
2022-09-21T10:39:59.000Z,55.85
2022-09-21T10:40:59.000Z,54.58
2022-09-21T10:41:59.000Z,56.48
2022-09-21T10:42:59.000Z,52.37
2022-09-21T10:43:59.000Z,56.98
2022-09-21T10:44:59.000Z,54.90
2022-09-21T10:45:59.000Z,54.00
2022-09-21T10:46:59.000Z,54.90
2022-09-21T10:47:59.000Z,55.13
2022-09-21T10:48:59.000Z,57.64
2022-09-21T10:49:59.000Z,59.08
2022-09-21T10:50:59.000Z,59.38
2022-09-21T10:51:59.000Z,57.77
2022-09-21T10:52:59.000Z,58.22
2022-09-21T10:53:59.000Z,60.57
2022-09-21T10:54:59.000Z,60.09
2022-09-21T10:55:59.000Z,61.50
2022-09-21T10:56:59.000Z,61.73
2022-09-21T10:57:59.000Z,61.46
2022-09-21T10:58:59.000Z,63.07
2022-09-21T10:59:59.000Z,64.48
2022-09-21T11:00:59.000Z,61.89
2022-09-21T11:01:59.000Z,64.31
2022-09-21T11:02:59.000Z,61.99
2022-09-21T11:03:59.000Z,62.52
2022-09-21T11:04:59.000Z,61.32
2022-09-21T11:05:59.000Z,61.92
2022-09-21T11:06:59.000Z,61.32
2022-09-21T11:07:59.000Z,61.72
2022-09-21T11:08:59.000Z,62.70
2022-09-21T11:09:59.000Z,62.49
2022-09-21T11:10:59.000Z,63.00
2022-09-21T11:11:59.000Z,63.70
2022-09-21T11:12:59.000Z,64.01
2022-09-21T11:13:59.000Z,60.48
2022-09-21T11:14:59.000Z,63.50
2022-09-21T11:15:59.000Z,64.51
2022-09-21T11:16:59.000Z,64.31
2022-09-21T11:17:59.000Z,63.50
2022-09-21T11:18:58.000Z,63.70
2022-09-21T11:19:58.000Z,63.50
2022-09-21T11:20:58.000Z,62.80
2022-09-21T11:21:58.000Z,62.09
2022-09-21T11:22:58.000Z,60.08
2022-09-21T11:23:58.000Z,63.20
2022-09-21T11:24:58.000Z,62.19
2022-09-21T11:25:58.000Z,62.09
2022-09-21T11:26:58.000Z,61.99
2022-09-21T11:27:58.000Z,63.50
2022-09-21T11:28:58.000Z,60.98
2022-09-21T11:29:58.000Z,61.29
2022-09-21T11:30:58.000Z,61.39
2022-09-21T11:31:58.000Z,59.77
2022-09-21T11:32:58.000Z,61.52
2022-09-21T11:33:58.000Z,59.09
2022-09-21T11:34:58.000Z,60.98
2022-09-21T11:35:58.000Z,61.52
2022-09-21T11:36:58.000Z,61.72
2022-09-21T11:37:58.000Z,62.63
2022-09-21T11:38:58.000Z,60.71
2022-09-21T11:39:58.000Z,61.95
2022-09-21T11:40:58.000Z,61.55
2022-09-21T11:41:58.000Z,62.85
2022-09-21T11:42:58.000Z,62.55
2022-09-21T11:43:58.000Z,61.27
2022-09-21T11:44:58.000Z,62.08
2022-09-21T11:45:58.000Z,63.29
2022-09-21T11:46:58.000Z,63.49
2022-09-21T11:47:58.000Z,64.50
2022-09-21T11:48:58.000Z,65.51
2022-09-21T11:49:58.000Z,65.11
2022-09-21T11:50:58.000Z,62.48
2022-09-21T11:51:58.000Z,64.61
2022-09-21T11:52:58.000Z,65.88
2022-09-21T11:53:58.000Z,65.28
2022-09-21T11:54:58.000Z,64.54
2022-09-21T11:55:58.000Z,63.00
2022-09-21T11:56:58.000Z,63.14
2022-09-21T11:57:58.000Z,60.64
2022-09-21T11:58:58.000Z,57.26
2022-09-21T11:59:58.000Z,55.91
2022-09-21T12:00:58.000Z,52.14
2022-09-21T12:01:58.000Z,51.69
2022-09-21T12:02:58.000Z,49.84
2022-09-21T12:03:58.000Z,49.19
2022-09-21T12:04:58.000Z,48.75
2022-09-21T12:05:58.000Z,46.91
2022-09-21T12:06:58.000Z,47.71
2022-09-21T12:07:58.000Z,47.15
2022-09-21T12:08:58.000Z,46.77
2022-09-21T12:09:58.000Z,48.85
2022-09-21T12:10:58.000Z,48.85
2022-09-21T12:11:58.000Z,47.45
2022-09-21T12:12:58.000Z,48.77
2022-09-21T12:13:58.000Z,49.69
2022-09-21T12:14:58.000Z,50.79
2022-09-21T12:15:58.000Z,50.62
2022-09-21T12:16:58.000Z,49.94
2022-09-21T12:17:58.000Z,50.57
2022-09-21T12:18:58.000Z,48.49
2022-09-21T12:19:58.000Z,50.31
2022-09-21T12:20:58.000Z,51.01
2022-09-21T12:21:58.000Z,52.34
2022-09-21T12:22:58.000Z,53.37
2022-09-21T12:23:58.000Z,52.59
2022-09-21T12:24:58.000Z,53.22
2022-09-21T12:25:58.000Z,55.55
2022-09-21T12:26:58.000Z,55.46
2022-09-21T12:27:58.000Z,54.28
2022-09-21T12:28:58.000Z,54.58
2022-09-21T12:29:58.000Z,57.29
2022-09-21T12:30:58.000Z,56.62
2022-09-21T12:31:58.000Z,56.21
2022-09-21T12:32:58.000Z,57.55
2022-09-21T12:33:58.000Z,54.93
2022-09-21T12:34:58.000Z,56.27
2022-09-21T12:35:58.000Z,57.07
2022-09-21T12:36:58.000Z,56.47
2022-09-21T12:37:58.000Z,57.00
2022-09-21T12:38:58.000Z,57.10
2022-09-21T12:39:58.000Z,57.73
2022-09-21T12:40:58.000Z,58.03
2022-09-21T12:41:58.000Z,58.44
2022-09-21T12:42:58.000Z,56.72
2022-09-21T12:43:58.000Z,59.04
2022-09-21T12:44:58.000Z,57.65
2022-09-21T12:45:58.000Z,58.67
2022-09-21T12:46:58.000Z,58.97
2022-09-21T12:47:58.000Z,57.76
2022-09-21T12:48:58.000Z,55.11
2022-09-21T12:49:57.000Z,58.94
2022-09-21T12:50:57.000Z,56.72
2022-09-21T12:51:57.000Z,57.73
2022-09-21T12:51:57.000Z,57.73
2022-09-21T12:52:57.000Z,59.64
2022-09-21T12:52:57.000Z,59.64
2022-09-21T12:53:57.000Z,60.15
2022-09-21T12:53:57.000Z,60.15
2022-09-21T12:54:57.000Z,58.81
2022-09-21T12:54:57.000Z,58.81
2022-09-21T12:55:57.000Z,56.90
2022-09-21T12:55:57.000Z,56.90
2022-09-21T12:56:57.000Z,57.90
2022-09-21T12:57:57.000Z,53.47
2022-09-21T12:58:57.000Z,51.36
2022-09-21T12:59:57.000Z,53.07
2022-09-21T13:00:57.000Z,53.98
2022-09-21T13:01:57.000Z,55.08
2022-09-21T13:02:57.000Z,54.79
2022-09-21T13:03:57.000Z,55.08
2022-09-21T13:04:57.000Z,53.98
2022-09-21T13:05:57.000Z,55.79
2022-09-21T13:06:57.000Z,55.89
2022-09-21T13:07:57.000Z,56.90
2022-09-21T13:08:57.000Z,55.19
2022-09-21T13:09:57.000Z,58.01
2022-09-21T13:10:57.000Z,56.80